Time;durP1;ratioP1;P1;durP2;ratioP2;P2;SDS_P1;SDS_P2;PMS_P1;PMS_P2;Temp;Humidity;BMP_temperature;BMP_pressure;BME280_temperature;BME280_humidity;BME280_pressure;Samples;Min_cycle;Max_cycle;Signal;HPM_P1;HPM_P2
2022/01/13 00:02:30;;;;;;;2.87;2.00;;;2.70;99.90;;;;;;5032882;28;20521;-74
2022/01/13 00:04:55;;;;;;;4.77;4.23;;;2.70;99.90;;;;;;5032540;28;20202;-74
2022/01/13 00:07:21;;;;;;;6.67;5.33;;;2.70;99.90;;;;;;5033272;28;20181;-74
2022/01/13 00:09:47;;;;;;;12.20;3.03;;;2.70;99.90;;;;;;5034247;28;20180;-74
2022/01/13 00:12:14;;;;;;;10.57;8.67;;;2.70;99.90;;;;;;5016108;28;20268;-74
2022/01/13 00:14:54;;;;;;;4.07;3.77;;;2.70;99.90;;;;;;5033513;28;20204;-74
2022/01/13 00:20:19;;;;;;;5.50;4.97;;;2.70;99.90;;;;;;5033564;28;20186;-74
2022/01/13 00:25:14;;;;;;;1.80;1.80;;;2.80;99.90;;;;;;5033451;28;20205;-76
2022/01/13 00:27:45;;;;;;;2.50;2.40;;;2.80;99.90;;;;;;5015967;28;20195;-74
2022/01/13 00:30:16;;;;;;;5.73;5.33;;;2.70;99.90;;;;;;5014985;28;20831;-74
2022/01/13 00:32:43;;;;;;;5.57;3.83;;;2.70;99.90;;;;;;5015808;28;20187;-75
2022/01/13 00:35:09;;;;;;;8.47;4.70;;;2.70;99.90;;;;;;5032815;28;20683;-74
2022/01/13 00:37:36;;;;;;;3.13;2.77;;;2.70;99.90;;;;;;5015965;28;20209;-74
2022/01/13 00:40:02;;;;;;;26.07;5.80;;;2.70;99.90;;;;;;5033622;28;20183;-74
2022/01/13 00:42:27;;;;;;;7.67;5.40;;;2.70;99.90;;;;;;5034232;28;20203;-74
2022/01/13 00:44:53;;;;;;;12.43;4.83;;;2.70;99.90;;;;;;5036684;28;20292;-74
2022/01/13 00:47:20;;;;;;;3.97;3.73;;;2.70;99.90;;;;;;5035899;28;21262;-74
2022/01/13 00:49:46;;;;;;;3.40;3.23;;;2.70;99.90;;;;;;5046952;28;20550;-74
2022/01/13 00:52:11;;;;;;;7.77;3.80;;;2.80;99.90;;;;;;5038300;28;20188;-74
2022/01/13 00:57:10;;;;;;;5.13;3.57;;;2.80;99.90;;;;;;5082847;22;20228;-70
2022/01/13 00:59:35;;;;;;;9.63;6.23;;;2.80;99.90;;;;;;5055438;28;20236;-71
2022/01/13 01:02:01;;;;;;;11.10;6.43;;;2.80;99.90;;;;;;5073323;28;20588;-71
2022/01/13 01:04:27;;;;;;;11.13;5.13;;;2.80;99.90;;;;;;5073585;28;20184;-71
2022/01/13 01:06:53;;;;;;;2.80;2.60;;;2.80;99.90;;;;;;5073536;28;20203;-71
2022/01/13 01:09:37;;;;;;;2.80;2.10;;;2.80;99.90;;;;;;5073579;28;20201;-71
2022/01/13 01:12:03;;;;;;;3.53;3.27;;;2.80;99.90;;;;;;5073068;28;20209;-71
2022/01/13 01:14:32;;;;;;;5.13;4.73;;;2.80;99.90;;;;;;5055038;28;20194;-71
2022/01/13 01:16:57;;;;;;;6.63;4.60;;;2.80;99.90;;;;;;5073115;28;20242;-70
2022/01/13 01:19:27;;;;;;;5.00;4.60;;;2.80;99.90;;;;;;5073222;28;20581;-71
2022/01/13 01:24:54;;;;;;;3.40;3.17;;;2.80;99.90;;;;;;5072928;28;20204;-71
2022/01/13 01:27:18;;;;;;;3.90;3.67;;;2.70;99.90;;;;;;5073066;28;20193;-71
2022/01/13 01:29:52;;;;;;;2.80;2.60;;;2.70;99.90;;;;;;5073197;28;20600;-70
2022/01/13 01:32:18;;;;;;;8.67;6.30;;;2.70;99.90;;;;;;5073086;28;20265;-70
2022/01/13 01:34:56;;;;;;;5.17;4.87;;;2.60;99.90;;;;;;5073140;28;20265;-70
2022/01/13 01:37:27;;;;;;;12.30;6.47;;;2.60;99.90;;;;;;5072912;28;20193;-70
2022/01/13 01:39:54;;;;;;;5.47;5.03;;;2.60;99.90;;;;;;5073127;28;20202;-70
2022/01/13 01:42:21;;;;;;;8.93;6.00;;;2.60;99.90;;;;;;5072662;28;20607;-70
2022/01/13 01:44:49;;;;;;;6.50;6.10;;;2.60;99.90;;;;;;5072886;28;20513;-70
2022/01/13 01:47:17;;;;;;;2.97;2.80;;;2.50;99.90;;;;;;5072764;28;20292;-70
2022/01/13 01:49:46;;;;;;;2.07;1.97;;;2.50;99.90;;;;;;5072837;28;20669;-70
2022/01/13 01:52:14;;;;;;;3.90;2.60;;;2.50;99.90;;;;;;5054675;28;20194;-70
2022/01/13 01:54:40;;;;;;;5.23;4.50;;;2.40;99.90;;;;;;5073003;28;20170;-70
2022/01/13 01:57:07;;;;;;;12.80;5.40;;;2.40;99.90;;;;;;5064946;28;20223;-72
2022/01/13 01:59:37;;;;;;;5.43;4.03;;;2.40;99.90;;;;;;5072577;28;20165;-72
2022/01/13 02:02:03;;;;;;;5.67;4.17;;;2.40;99.90;;;;;;5054551;28;20541;-72
2022/01/13 02:04:28;;;;;;;14.40;7.87;;;2.30;99.90;;;;;;5072304;28;20205;-72
2022/01/13 02:06:56;;;;;;;4.97;4.67;;;2.30;99.90;;;;;;5072273;28;20287;-72
2022/01/13 02:09:22;;;;;;;2.17;2.07;;;2.30;99.90;;;;;;5072417;28;20536;-72
2022/01/13 02:11:53;;;;;;;1.80;1.73;;;2.30;99.90;;;;;;5071987;28;20192;-73
2022/01/13 02:16:50;;;;;;;4.37;4.00;;;2.20;99.90;;;;;;5072062;28;20197;-72
2022/01/13 02:19:17;;;;;;;11.70;6.97;;;2.20;99.90;;;;;;5072050;28;20181;-70
2022/01/13 02:21:42;;;;;;;6.07;5.57;;;2.30;99.90;;;;;;5071273;28;20569;-70
2022/01/13 02:24:08;;;;;;;5.27;4.77;;;2.30;99.90;;;;;;5071785;28;20183;-71
2022/01/13 02:26:33;;;;;;;4.97;4.00;;;2.40;99.90;;;;;;5071894;28;20263;-71
2022/01/13 02:28:59;;;;;;;3.53;3.27;;;2.40;99.90;;;;;;5071929;28;20185;-71
2022/01/13 02:31:28;;;;;;;10.53;6.33;;;2.30;99.90;;;;;;5071439;28;20189;-72
2022/01/13 02:33:54;;;;;;;6.10;4.00;;;2.30;99.90;;;;;;5071824;28;20183;-72
2022/01/13 02:36:22;;;;;;;3.47;3.30;;;2.30;99.90;;;;;;5053775;28;20206;-72
2022/01/13 02:38:53;;;;;;;4.73;4.43;;;2.30;99.90;;;;;;5071847;28;20178;-71
2022/01/13 02:41:19;;;;;;;3.83;3.63;;;2.30;99.90;;;;;;5071507;28;20165;-70
2022/01/13 02:43:46;;;;;;;3.27;3.00;;;2.30;99.90;;;;;;5071499;28;20206;-71
2022/01/13 02:48:57;;;;;;;4.10;3.90;;;2.20;99.90;;;;;;5071812;28;20179;-72
2022/01/13 02:51:22;;;;;;;6.00;5.37;;;2.30;99.90;;;;;;5053414;28;20183;-71
2022/01/13 02:53:48;;;;;;;7.13;6.50;;;2.30;99.90;;;;;;5071504;28;20186;-71
2022/01/13 02:56:14;;;;;;;3.97;3.70;;;2.30;99.90;;;;;;5066337;28;20215;-72
2022/01/13 02:58:39;;;;;;;7.23;6.57;;;2.30;99.90;;;;;;5068229;28;20175;-72
2022/01/13 03:01:05;;;;;;;3.43;2.80;;;2.30;99.90;;;;;;5071461;28;20179;-72
2022/01/13 03:03:33;;;;;;;3.30;2.97;;;2.30;99.90;;;;;;5071182;28;20179;-72
2022/01/13 03:06:08;;;;;;;4.57;4.13;;;2.30;99.90;;;;;;5070754;28;20874;-72
2022/01/13 03:08:35;;;;;;;5.40;3.20;;;2.30;99.90;;;;;;5071327;28;20183;-72
2022/01/13 03:11:00;;;;;;;1.80;1.40;;;2.30;99.90;;;;;;5071332;28;20170;-72
2022/01/13 03:13:28;;;;;;;6.60;1.83;;;2.30;99.90;;;;;;5071060;28;20680;-72
2022/01/13 03:15:54;;;;;;;7.13;6.50;;;2.30;99.90;;;;;;5071233;28;20249;-72
2022/01/13 03:18:19;;;;;;;5.03;3.67;;;2.30;99.90;;;;;;5071363;28;20218;-71
2022/01/13 03:20:45;;;;;;;8.70;3.37;;;2.30;99.90;;;;;;5070761;28;20178;-72
2022/01/13 03:23:15;;;;;;;4.70;4.30;;;2.20;99.90;;;;;;5052212;28;20182;-71
2022/01/13 03:25:44;;;;;;;7.27;4.13;;;2.10;99.90;;;;;;5071267;28;20271;-70
2022/01/13 03:28:15;;;;;;;6.27;3.50;;;2.20;99.90;;;;;;5071214;28;20189;-70
2022/01/13 03:30:41;;;;;;;5.93;5.43;;;2.20;99.90;;;;;;5071206;28;20187;-70
2022/01/13 03:33:07;;;;;;;3.70;3.33;;;2.10;99.90;;;;;;5070803;28;20174;-70
2022/01/13 03:35:33;;;;;;;6.70;6.07;;;2.10;99.90;;;;;;5070732;28;20678;-70
2022/01/13 03:37:59;;;;;;;1.90;1.80;;;2.10;99.90;;;;;;5053068;28;20179;-71
2022/01/13 03:40:26;;;;;;;6.17;5.63;;;2.10;99.90;;;;;;5071076;28;20180;-70
2022/01/13 03:42:53;;;;;;;6.40;3.77;;;2.10;99.90;;;;;;5052806;28;20262;-70
2022/01/13 03:45:20;;;;;;;7.40;3.47;;;2.10;99.90;;;;;;5070944;28;20200;-70
2022/01/13 03:47:45;;;;;;;3.27;3.07;;;2.10;99.90;;;;;;5071044;28;20857;-70
2022/01/13 03:50:11;;;;;;;4.77;4.27;;;2.10;99.90;;;;;;5071156;28;20189;-71
2022/01/13 03:53:01;;;;;;;4.47;3.03;;;2.10;99.90;;;;;;5070671;28;20620;-71
2022/01/13 03:55:36;;;;;;;5.87;4.27;;;2.10;99.90;;;;;;5070602;28;20350;-72
2022/01/13 03:58:39;;;;;;;8.30;5.10;;;2.00;99.90;;;;;;5062956;28;20178;-72
2022/01/13 04:01:13;;;;;;;1.70;1.67;;;2.00;99.90;;;;;;5071086;28;20180;-71
2022/01/13 04:03:39;;;;;;;4.13;3.73;;;2.00;99.90;;;;;;5070717;28;20184;-72
2022/01/13 04:06:14;;;;;;;5.87;5.47;;;2.00;99.90;;;;;;5052748;28;20213;-72
2022/01/13 04:08:40;;;;;;;6.00;3.03;;;2.10;99.90;;;;;;5070740;28;20231;-71
2022/01/13 04:11:06;;;;;;;3.20;2.93;;;2.00;99.90;;;;;;5071061;28;20198;-71
2022/01/13 04:13:56;;;;;;;3.97;3.70;;;2.00;99.90;;;;;;5070520;28;20265;-71
2022/01/13 04:16:28;;;;;;;13.13;4.17;;;2.00;99.90;;;;;;5072504;28;20206;-71
2022/01/13 04:19:00;;;;;;;5.63;5.10;;;2.00;99.90;;;;;;5074672;28;20202;-71
2022/01/13 04:21:25;;;;;;;2.57;2.37;;;2.00;99.90;;;;;;5055768;28;20359;-71
2022/01/13 04:23:54;;;;;;;5.30;4.87;;;2.00;99.90;;;;;;5073561;28;20704;-71
2022/01/13 04:26:27;;;;;;;8.90;6.73;;;2.00;99.90;;;;;;5074345;28;20280;-71
2022/01/13 04:29:01;;;;;;;11.47;4.93;;;2.00;99.90;;;;;;5074280;28;20211;-71
2022/01/13 04:31:26;;;;;;;5.83;3.47;;;2.00;99.90;;;;;;5073927;28;20182;-71
2022/01/13 04:33:52;;;;;;;7.93;7.17;;;1.90;99.90;;;;;;5074044;28;20174;-71
2022/01/13 04:36:17;;;;;;;4.73;4.33;;;1.90;99.90;;;;;;5074058;28;20233;-72
2022/01/13 04:38:43;;;;;;;4.10;3.73;;;1.90;99.90;;;;;;5074389;28;20592;-72
2022/01/13 04:41:08;;;;;;;6.07;5.50;;;1.90;99.90;;;;;;5074146;28;20616;-71
2022/01/13 04:43:34;;;;;;;4.30;3.97;;;1.90;99.90;;;;;;5073365;28;20583;-71
2022/01/13 04:46:00;;;;;;;15.87;4.37;;;1.90;99.90;;;;;;5073775;28;20215;-71
2022/01/13 04:48:26;;;;;;;2.63;2.53;;;1.90;99.90;;;;;;5056070;28;20186;-72
2022/01/13 04:50:52;;;;;;;6.63;4.17;;;1.90;99.90;;;;;;5073982;28;20201;-72
2022/01/13 04:53:17;;;;;;;10.00;7.40;;;1.90;99.90;;;;;;5073714;28;20201;-72
2022/01/13 04:55:51;;;;;;;7.33;6.67;;;1.90;99.90;;;;;;5072990;28;20215;-72
2022/01/13 04:58:17;;;;;;;15.60;6.33;;;1.90;99.90;;;;;;5068236;28;20602;-72
2022/01/13 05:00:43;;;;;;;12.63;6.33;;;1.90;99.90;;;;;;5073711;28;20173;-73
2022/01/13 05:03:09;;;;;;;5.80;5.27;;;1.90;99.90;;;;;;5073452;28;20645;-71
2022/01/13 05:05:34;;;;;;;5.57;5.17;;;1.90;99.90;;;;;;5073604;28;20196;-72
2022/01/13 05:08:00;;;;;;;2.67;2.20;;;1.80;99.90;;;;;;5055632;28;20185;-71
2022/01/13 05:10:26;;;;;;;8.50;5.60;;;1.80;99.90;;;;;;5073745;28;20177;-71
2022/01/13 05:12:57;;;;;;;5.57;4.53;;;1.80;99.90;;;;;;5073226;28;20298;-72
2022/01/13 05:15:26;;;;;;;1.73;1.67;;;1.70;99.90;;;;;;5073287;28;20202;-71
2022/01/13 05:20:26;;;;;;;10.57;7.20;;;1.70;99.90;;;;;;5072931;28;20228;-71
2022/01/13 05:22:52;;;;;;;6.03;5.57;;;1.70;99.90;;;;;;5073100;28;20651;-71
2022/01/13 05:25:19;;;;;;;6.63;6.00;;;1.60;99.90;;;;;;5073286;28;20678;-71
2022/01/13 05:27:45;;;;;;;8.43;7.60;;;1.60;99.90;;;;;;5072817;28;20189;-71
2022/01/13 05:30:12;;;;;;;4.23;3.00;;;1.50;99.90;;;;;;5075462;28;20186;-71
2022/01/13 05:32:38;;;;;;;7.83;4.67;;;1.50;99.90;;;;;;5073897;28;20196;-71
2022/01/13 05:35:04;;;;;;;7.57;6.03;;;1.50;99.90;;;;;;5073052;28;20247;-71
2022/01/13 05:37:30;;;;;;;6.57;6.10;;;1.50;99.90;;;;;;5073588;28;20696;-71
2022/01/13 05:39:56;;;;;;;2.20;2.10;;;1.50;99.90;;;;;;5074095;28;20188;-71
2022/01/13 05:42:22;;;;;;;3.40;3.27;;;1.50;99.90;;;;;;5071967;28;20197;-71
2022/01/13 05:44:48;;;;;;;2.73;2.47;;;1.60;99.90;;;;;;5072736;28;20187;-71
2022/01/13 05:47:14;;;;;;;5.13;2.90;;;1.50;99.90;;;;;;5072921;28;20706;-72
2022/01/13 05:49:41;;;;;;;10.37;4.50;;;1.50;99.90;;;;;;5072959;28;20593;-72
2022/01/13 05:52:14;;;;;;;8.63;7.23;;;1.40;99.90;;;;;;5072329;28;20202;-72
2022/01/13 05:54:40;;;;;;;13.10;4.80;;;1.40;99.90;;;;;;5072598;28;20537;-71
2022/01/13 05:57:05;;;;;;;4.30;3.13;;;1.40;99.90;;;;;;5064205;28;20619;-71
2022/01/13 05:59:31;;;;;;;9.60;2.27;;;1.30;99.90;;;;;;5055174;28;20271;-72
2022/01/13 06:01:58;;;;;;;11.93;6.03;;;1.30;99.90;;;;;;5072722;28;20168;-71
2022/01/13 06:04:24;;;;;;;3.93;3.63;;;1.30;99.90;;;;;;5072700;28;20227;-71
2022/01/13 06:06:50;;;;;;;4.77;3.30;;;1.20;99.90;;;;;;5072455;28;20925;-71
2022/01/13 06:09:15;;;;;;;7.20;6.50;;;1.10;99.90;;;;;;5072774;28;20188;-71
2022/01/13 06:11:51;;;;;;;5.17;4.70;;;1.10;99.90;;;;;;5072200;28;20621;-70
2022/01/13 06:14:16;;;;;;;14.37;5.97;;;1.10;99.90;;;;;;5072478;28;20235;-71
2022/01/13 06:16:42;;;;;;;2.00;1.83;;;1.00;99.90;;;;;;5072296;28;20196;-71
2022/01/13 06:19:07;;;;;;;5.53;5.13;;;1.00;99.90;;;;;;5073443;28;20172;-71
2022/01/13 06:21:33;;;;;;;8.20;4.00;;;0.90;99.90;;;;;;5071383;28;20172;-71
2022/01/13 06:23:59;;;;;;;7.40;2.90;;;0.90;99.90;;;;;;5072124;28;20258;-71
2022/01/13 06:26:24;;;;;;;3.17;2.87;;;0.90;99.90;;;;;;5072269;28;20201;-71
2022/01/13 06:28:50;;;;;;;4.57;4.13;;;0.80;99.90;;;;;;5054427;28;20176;-71
2022/01/13 06:31:15;;;;;;;5.77;5.37;;;0.90;99.90;;;;;;5072170;28;20551;-73
2022/01/13 06:33:41;;;;;;;4.70;1.53;;;0.90;99.90;;;;;;5072243;28;20267;-71
2022/01/13 06:36:07;;;;;;;5.03;4.63;;;0.90;99.90;;;;;;5071848;28;20201;-71
2022/01/13 06:38:33;;;;;;;1.47;1.47;;;0.80;99.90;;;;;;5072482;28;20614;-71
2022/01/13 06:40:58;;;;;;;7.37;3.43;;;0.80;99.90;;;;;;5072233;28;20184;-71
2022/01/13 06:43:24;;;;;;;1.53;1.53;;;0.70;99.90;;;;;;5047253;28;20228;-71
2022/01/13 06:45:49;;;;;;;5.93;4.50;;;0.70;99.90;;;;;;5066968;28;20204;-72
2022/01/13 06:48:15;;;;;;;7.67;6.33;;;0.60;99.90;;;;;;5071345;28;20180;-72
2022/01/13 06:50:41;;;;;;;3.87;3.67;;;0.60;99.90;;;;;;5071877;28;20275;-74
2022/01/13 06:53:06;;;;;;;2.33;2.23;;;0.60;99.90;;;;;;5070387;28;20223;-73
2022/01/13 06:55:32;;;;;;;6.90;4.63;;;0.60;99.90;;;;;;5071378;28;20212;-73
2022/01/13 06:57:58;;;;;;;9.60;7.03;;;0.60;99.90;;;;;;5079326;23;20311;-75
2022/01/13 07:00:24;;;;;;;2.73;1.37;;;0.60;99.90;;;;;;5054971;28;20188;-74
2022/01/13 07:02:52;;;;;;;4.80;4.50;;;0.60;99.90;;;;;;5052812;28;20188;-74
2022/01/13 07:05:17;;;;;;;3.20;3.03;;;0.50;99.90;;;;;;5054772;28;20166;-75
2022/01/13 07:07:43;;;;;;;6.37;3.73;;;0.40;99.90;;;;;;5039184;28;20212;-76
2022/01/13 07:10:11;;;;;;;7.07;3.70;;;0.50;99.90;;;;;;5033818;28;20178;-75
2022/01/13 07:12:37;;;;;;;4.77;3.83;;;0.50;99.90;;;;;;5045426;28;20188;-74
2022/01/13 07:15:04;;;;;;;3.57;3.37;;;0.50;99.90;;;;;;5056223;28;20181;-74
2022/01/13 07:17:30;;;;;;;5.80;4.67;;;0.40;99.90;;;;;;5055563;28;20243;-74
2022/01/13 07:19:56;;;;;;;5.83;2.23;;;0.50;99.90;;;;;;5053477;28;20239;-74
2022/01/13 07:22:22;;;;;;;1.10;0.87;;;0.50;99.90;;;;;;5053814;28;20174;-74
2022/01/13 07:24:48;;;;;;;2.73;2.50;;;0.40;99.90;;;;;;5052918;28;20193;-75
2022/01/13 07:27:14;;;;;;;1.70;1.70;;;0.50;99.90;;;;;;5053450;28;20193;-75
2022/01/13 07:29:39;;;;;;;3.77;3.57;;;0.50;99.90;;;;;;5052252;28;20276;-75
2022/01/13 07:32:06;;;;;;;3.70;3.40;;;0.50;99.90;;;;;;5053562;28;20181;-74
2022/01/13 07:34:32;;;;;;;5.03;4.77;;;0.40;99.90;;;;;;5055934;28;20247;-75
2022/01/13 07:36:57;;;;;;;7.60;3.67;;;0.30;99.90;;;;;;5055826;28;20212;-74
2022/01/13 07:39:23;;;;;;;5.40;5.10;;;0.30;99.90;;;;;;5057154;28;20173;-75
2022/01/13 07:41:49;;;;;;;5.20;4.80;;;0.30;99.90;;;;;;5057876;28;20681;-75
2022/01/13 07:44:16;;;;;;;6.40;5.90;;;0.30;99.90;;;;;;5047149;28;20683;-73
2022/01/13 07:46:41;;;;;;;4.47;3.00;;;0.30;99.90;;;;;;5058321;28;20221;-74
2022/01/13 07:49:07;;;;;;;3.70;2.97;;;0.30;99.90;;;;;;5057794;28;20181;-72
2022/01/13 07:51:32;;;;;;;5.90;5.50;;;0.30;99.90;;;;;;5059402;28;20188;-72
2022/01/13 07:53:58;;;;;;;4.73;2.90;;;0.30;99.90;;;;;;5061793;28;20264;-74
2022/01/13 07:56:24;;;;;;;4.27;4.03;;;0.40;99.90;;;;;;5057103;28;20217;-75
2022/01/13 07:58:49;;;;;;;2.43;2.23;;;0.30;99.90;;;;;;5080562;28;20180;-70
2022/01/13 08:01:15;;;;;;;6.67;4.17;;;0.30;99.90;;;;;;5071451;28;20188;-75
2022/01/13 08:03:40;;;;;;;4.37;3.70;;;0.30;99.90;;;;;;5082236;28;20214;-74
2022/01/13 08:06:06;;;;;;;4.70;4.23;;;0.30;99.90;;;;;;5065599;28;20172;-73
2022/01/13 08:08:32;;;;;;;1.70;1.60;;;0.20;99.90;;;;;;5079508;28;20239;-74
2022/01/13 08:10:59;;;;;;;4.70;2.90;;;0.20;99.90;;;;;;5060004;28;20720;-73
2022/01/13 08:13:24;;;;;;;2.20;2.00;;;0.20;99.90;;;;;;5092800;28;20180;-74
2022/01/13 08:15:52;;;;;;;3.13;2.93;;;0.30;99.90;;;;;;5089545;28;20176;-75
2022/01/13 08:21:02;;;;;;;4.50;4.20;;;0.30;99.90;;;;;;5070084;28;20598;-75
2022/01/13 08:23:28;;;;;;;14.00;6.73;;;0.30;99.90;;;;;;5057530;28;20185;-74
2022/01/13 08:25:54;;;;;;;7.10;6.17;;;0.40;99.90;;;;;;5058590;28;20173;-74
2022/01/13 08:28:20;;;;;;;2.43;2.30;;;0.50;99.90;;;;;;5041287;28;20176;-75
2022/01/13 08:30:46;;;;;;;4.57;4.23;;;0.50;99.90;;;;;;5057946;28;20177;-75
2022/01/13 08:33:12;;;;;;;7.53;7.03;;;0.50;99.90;;;;;;5061945;28;20835;-73
2022/01/13 08:35:43;;;;;;;5.60;5.37;;;0.60;99.90;;;;;;5063012;28;20204;-73
2022/01/13 08:38:16;;;;;;;2.60;2.50;;;0.60;99.90;;;;;;5081812;28;20204;-75
2022/01/13 08:40:49;;;;;;;6.13;4.50;;;0.70;99.90;;;;;;5082014;28;20204;-73
2022/01/13 08:43:16;;;;;;;4.97;4.63;;;0.70;99.90;;;;;;5084597;28;20172;-75
2022/01/13 08:45:42;;;;;;;7.60;5.63;;;0.70;99.90;;;;;;5084871;28;20262;-75
2022/01/13 08:48:08;;;;;;;11.97;8.47;;;0.80;99.90;;;;;;5084544;28;20251;-74
2022/01/13 08:50:35;;;;;;;5.50;4.90;;;0.80;99.90;;;;;;5083928;28;20183;-75
2022/01/13 08:53:00;;;;;;;7.00;5.47;;;0.90;99.90;;;;;;5073493;28;20215;-74
2022/01/13 08:55:26;;;;;;;11.53;7.93;;;0.90;99.90;;;;;;5057927;28;20188;-75
2022/01/13 08:57:52;;;;;;;4.70;3.33;;;0.90;99.90;;;;;;5071664;28;20234;-74
2022/01/13 09:00:18;;;;;;;11.10;6.03;;;1.00;99.90;;;;;;5065326;28;20230;-74
2022/01/13 09:02:44;;;;;;;8.97;8.10;;;1.00;99.90;;;;;;5080413;28;20173;-75
2022/01/13 09:05:15;;;;;;;9.53;6.50;;;1.00;99.90;;;;;;5063894;28;20185;-76
2022/01/13 09:07:41;;;;;;;11.73;8.37;;;1.00;99.90;;;;;;5081636;28;20257;-75
2022/01/13 09:10:09;;;;;;;7.63;6.90;;;1.10;99.90;;;;;;5081037;28;20266;-74
2022/01/13 09:12:34;;;;;;;7.00;6.53;;;1.10;99.90;;;;;;5081042;28;20207;-76
2022/01/13 09:15:14;;;;;;;31.03;9.23;;;1.10;99.90;;;;;;5076573;28;20189;-75
2022/01/13 09:17:42;;;;;;;6.67;6.13;;;1.10;99.90;;;;;;5043071;28;20240;-74
2022/01/13 09:20:08;;;;;;;6.53;6.20;;;1.10;99.90;;;;;;5043357;28;20177;-75
2022/01/13 09:22:34;;;;;;;2.83;2.73;;;1.10;99.90;;;;;;5060705;28;20191;-75
2022/01/13 09:24:59;;;;;;;13.70;8.70;;;1.00;99.90;;;;;;5061281;28;20181;-75
2022/01/13 09:27:25;;;;;;;6.50;5.90;;;1.00;99.90;;;;;;5062057;28;20204;-74
2022/01/13 09:29:50;;;;;;;5.27;4.77;;;1.00;99.90;;;;;;5061065;28;20193;-75
2022/01/13 09:32:16;;;;;;;5.77;4.93;;;1.10;99.90;;;;;;5060387;28;20189;-74
2022/01/13 09:34:43;;;;;;;9.10;6.80;;;1.10;99.90;;;;;;5059874;28;20188;-76
2022/01/13 09:37:09;;;;;;;6.73;5.97;;;1.20;99.90;;;;;;5058920;28;20201;-73
2022/01/13 09:39:35;;;;;;;13.10;4.43;;;1.20;99.90;;;;;;5078605;28;20248;-75
2022/01/13 09:42:01;;;;;;;4.03;3.80;;;1.20;99.90;;;;;;5079555;28;20169;-75
2022/01/13 09:44:28;;;;;;;7.67;4.03;;;1.20;99.90;;;;;;5060247;28;20233;-75
2022/01/13 09:46:55;;;;;;;4.80;4.47;;;1.20;99.90;;;;;;5060731;28;20212;-74
2022/01/13 09:49:21;;;;;;;13.47;8.10;;;1.30;99.90;;;;;;5078605;28;20169;-75
2022/01/13 09:51:47;;;;;;;10.63;8.67;;;1.30;99.90;;;;;;5059768;28;20180;-74
2022/01/13 09:54:13;;;;;;;5.37;4.93;;;1.30;99.90;;;;;;5065419;28;20187;-75
2022/01/13 09:56:39;;;;;;;5.60;5.07;;;1.40;99.90;;;;;;5069449;28;20291;-75
2022/01/13 09:59:06;;;;;;;6.80;6.30;;;1.50;99.90;;;;;;5060289;28;20706;-75
2022/01/13 10:01:31;;;;;;;18.63;8.37;;;1.50;99.90;;;;;;5061023;28;20176;-74
2022/01/13 10:03:57;;;;;;;9.10;7.73;;;1.50;99.90;;;;;;5079428;28;20588;-74
2022/01/13 10:06:22;;;;;;;15.40;10.87;;;1.50;99.90;;;;;;5079393;28;20204;-73
2022/01/13 10:08:49;;;;;;;9.77;8.17;;;1.60;99.90;;;;;;5079090;28;20271;-76
2022/01/13 10:11:33;;;;;;;9.93;5.33;;;1.70;99.90;;;;;;5062541;28;20180;-75
2022/01/13 10:17:07;;;;;;;5.33;4.83;;;1.80;99.90;;;;;;5078762;28;20216;-75
2022/01/13 10:19:37;;;;;;;7.60;7.03;;;1.90;99.90;;;;;;5060674;28;20331;-76
2022/01/13 10:22:08;;;;;;;6.43;5.90;;;2.10;99.90;;;;;;5036803;28;20221;-75
2022/01/13 10:24:36;;;;;;;11.67;7.63;;;2.10;99.90;;;;;;5054635;28;20186;-74
2022/01/13 10:27:12;;;;;;;5.33;3.23;;;2.20;99.90;;;;;;5056063;28;20275;-75
2022/01/13 10:30:17;;;;;;;8.97;7.53;;;2.40;99.90;;;;;;5054311;28;20234;-74
2022/01/13 10:32:44;;;;;;;3.77;3.10;;;2.60;99.90;;;;;;5030956;28;20254;-75
2022/01/13 10:35:14;;;;;;;9.33;7.37;;;2.60;99.90;;;;;;5073905;28;20177;-74
2022/01/13 10:37:47;;;;;;;17.23;8.67;;;2.70;99.90;;;;;;5073624;28;20233;-75
2022/01/13 10:40:24;;;;;;;6.80;6.40;;;2.90;99.90;;;;;;5073842;28;20185;-75
2022/01/13 10:45:29;;;;;;;7.30;6.63;;;3.40;99.90;;;;;;5073445;28;20179;-75
2022/01/13 10:48:08;;;;;;;5.90;5.43;;;3.50;99.90;;;;;;5035991;28;20204;-76
2022/01/13 10:50:47;;;;;;;11.60;6.47;;;3.60;99.90;;;;;;5070288;28;20224;-74
2022/01/13 10:53:25;;;;;;;4.97;4.67;;;3.90;99.90;;;;;;5055226;28;20200;-76
2022/01/13 10:56:05;;;;;;;6.50;6.13;;;3.90;99.90;;;;;;5053959;28;20308;-77
2022/01/13 10:58:47;;;;;;;7.07;6.63;;;3.90;99.90;;;;;;5051557;28;20248;-76
2022/01/13 11:01:14;;;;;;;4.83;4.63;;;4.10;99.90;;;;;;5073298;28;20186;-75
2022/01/13 11:03:42;;;;;;;6.37;5.20;;;4.30;99.90;;;;;;5072868;28;20547;-75
2022/01/13 11:06:10;;;;;;;14.02;6.55;;;4.60;99.90;;;;;;5072575;28;20395;-75
2022/01/13 11:08:43;;;;;;;6.30;4.87;;;5.00;99.90;;;;;;5073171;28;20180;-74
2022/01/13 11:11:25;;;;;;;33.30;8.60;;;5.30;99.90;;;;;;5073316;28;20709;-73
2022/01/13 11:13:58;;;;;;;14.07;5.60;;;5.40;99.90;;;;;;5073341;28;20250;-74
2022/01/13 11:16:24;;;;;;;6.77;6.23;;;5.60;99.90;;;;;;5073105;28;20216;-74
2022/01/13 11:18:51;;;;;;;9.83;5.93;;;5.80;99.90;;;;;;5072794;28;20666;-77
2022/01/13 11:21:17;;;;;;;8.43;5.33;;;6.30;99.90;;;;;;5072989;28;20184;-75
2022/01/13 11:23:48;;;;;;;9.43;6.60;;;6.40;99.90;;;;;;5055078;28;20233;-75
2022/01/13 11:26:16;;;;;;;9.30;6.33;;;6.70;99.90;;;;;;5054276;28;20208;-75
2022/01/13 11:28:42;;;;;;;10.50;3.10;;;6.90;99.90;;;;;;5039927;28;20180;-73
2022/01/13 11:31:08;;;;;;;6.97;6.20;;;7.00;99.90;;;;;;5063787;28;20539;-74
2022/01/13 11:33:36;;;;;;;4.37;3.97;;;7.40;99.90;;;;;;5040252;28;20188;-72
2022/01/13 11:36:03;;;;;;;9.23;6.27;;;8.00;99.90;;;;;;5069567;28;20191;-75
2022/01/13 11:38:30;;;;;;;5.93;4.53;;;8.40;99.90;;;;;;5073131;28;20547;-73
2022/01/13 11:41:15;;;;;;;10.67;8.70;;;8.80;99.90;;;;;;5053802;28;20173;-76
2022/01/13 11:43:41;;;;;;;5.93;5.27;;;9.40;99.90;;;;;;5055043;28;20188;-74
2022/01/13 11:46:16;;;;;;;7.50;6.40;;;9.10;99.90;;;;;;5071554;28;20164;-75
2022/01/13 11:48:58;;;;;;;7.47;6.77;;;8.10;99.90;;;;;;5068238;28;20651;-74
2022/01/13 11:51:24;;;;;;;7.13;5.57;;;7.00;99.90;;;;;;5063518;28;20180;-72
2022/01/13 11:54:02;;;;;;;3.20;3.00;;;6.60;99.90;;;;;;5055471;28;20176;-73
2022/01/13 11:56:29;;;;;;;14.47;5.73;;;6.30;99.90;;;;;;5065723;28;20212;-74
2022/01/13 11:58:56;;;;;;;11.03;4.87;;;6.10;99.90;;;;;;5055014;28;20180;-75
2022/01/13 12:01:24;;;;;;;4.50;3.90;;;6.00;99.90;;;;;;5053990;28;20176;-74
2022/01/13 12:03:53;;;;;;;5.97;5.43;;;6.00;99.90;;;;;;5073323;28;20728;-76
2022/01/13 12:06:45;;;;;;;2.80;2.13;;;6.00;99.90;;;;;;5071875;28;20224;-75
2022/01/13 12:09:15;;;;;;;13.50;7.60;;;6.00;99.90;;;;;;5072890;28;20290;-74
2022/01/13 12:12:03;;;;;;;8.57;7.53;;;6.10;99.90;;;;;;5072950;28;20241;-75
2022/01/13 12:14:31;;;;;;;4.43;4.13;;;6.40;99.90;;;;;;5064726;28;20593;-75
2022/01/13 12:16:57;;;;;;;3.53;3.23;;;7.70;99.90;;;;;;5070692;28;20262;-77
2022/01/13 12:19:37;;;;;;;6.10;5.40;;;8.10;99.90;;;;;;5055028;28;20177;-77
2022/01/13 12:22:20;;;;;;;6.00;5.47;;;7.70;99.90;;;;;;5053441;28;20234;-77
2022/01/13 12:24:48;;;;;;;7.73;5.30;;;8.40;99.90;;;;;;5072831;28;20631;-76
2022/01/13 12:27:14;;;;;;;7.67;5.77;;;10.00;99.90;;;;;;5054167;28;20201;-79
2022/01/13 12:30:04;;;;;;;7.60;5.87;;;10.60;99.90;;;;;;5063625;28;20172;-79
2022/01/13 12:32:34;;;;;;;10.50;6.03;;;11.40;99.90;;;;;;5053340;28;20208;-75
2022/01/13 12:35:00;;;;;;;7.43;6.03;;;12.50;99.90;;;;;;5055421;28;20184;-77
2022/01/13 12:37:27;;;;;;;9.13;5.23;;;12.10;99.90;;;;;;5076344;28;20222;-77
2022/01/13 12:39:58;;;;;;;9.87;6.67;;;;;;;;;;5071803;28;20215;-76
2022/01/13 12:42:34;;;;;;;4.87;3.33;;;10.80;99.90;;;;;;5058944;28;20188;-76
2022/01/13 12:47:44;;;;;;;3.10;2.87;;;10.70;99.90;;;;;;5064761;28;20226;-76
2022/01/13 12:50:21;;;;;;;4.67;3.10;;;9.90;99.90;;;;;;5076460;28;20180;-75
2022/01/13 12:52:48;;;;;;;11.23;4.40;;;9.70;99.90;;;;;;5077802;28;20705;-75
2022/01/13 12:55:14;;;;;;;9.17;5.83;;;10.10;99.90;;;;;;5077335;28;20188;-74
2022/01/13 12:57:48;;;;;;;2.77;2.43;;;10.50;99.90;;;;;;5067351;28;20245;-75
2022/01/13 13:00:15;;;;;;;4.20;3.90;;;10.60;99.90;;;;;;5089930;22;20235;-75
2022/01/13 13:02:56;;;;;;;4.73;4.00;;;11.00;99.90;;;;;;5062717;28;20184;-73
2022/01/13 13:05:30;;;;;;;3.10;2.83;;;12.40;99.90;;;;;;5038870;28;20184;-73
2022/01/13 13:07:56;;;;;;;1.70;1.60;;;13.90;99.90;;;;;;5062915;28;20263;-74
2022/01/13 13:10:21;;;;;;;5.63;4.93;;;15.10;99.90;;;;;;5060091;28;20300;-75
2022/01/13 13:12:52;;;;;;;3.47;3.17;;;15.50;99.90;;;;;;5051329;28;20207;-75
2022/01/13 13:17:49;;;;;;;10.77;6.23;;;15.50;99.90;;;;;;5073346;28;20299;-75
2022/01/13 13:20:32;;;;;;;6.30;3.80;;;16.00;99.90;;;;;;5072607;28;20185;-76
2022/01/13 13:23:03;;;;;;;1.43;1.33;;;17.20;99.90;;;;;;5068054;28;20184;-75
2022/01/13 13:25:36;;;;;;;13.40;3.40;;;16.60;99.90;;;;;;5059997;28;20255;-76
2022/01/13 13:28:31;;;;;;;10.00;3.70;;;16.30;99.90;;;;;;5076292;28;20240;-78
2022/01/13 13:31:00;;;;;;;4.37;3.93;;;16.30;99.90;;;;;;5072598;28;20196;-78
2022/01/13 13:33:48;;;;;;;3.83;1.97;;;16.40;99.90;;;;;;5040468;28;20177;-75
2022/01/13 13:36:15;;;;;;;6.30;3.13;;;15.80;99.90;;;;;;5053099;28;20710;-75